createdAt,value
2019-02-04T00:01:51.317Z,46.83
2019-02-04T00:04:21.701Z,45.17
2019-02-04T00:06:51.946Z,61.33
2019-02-04T00:09:22.158Z,37.20
2019-02-04T00:11:52.878Z,34.80
2019-02-04T00:14:23.138Z,43.73
2019-02-04T00:16:53.391Z,123.77
2019-02-04T00:19:23.650Z,56.60
2019-02-04T00:21:53.930Z,115.20
2019-02-04T00:24:24.182Z,34.47
2019-02-04T00:26:54.568Z,34.40
2019-02-04T00:29:24.802Z,31.10
2019-02-04T00:31:55.058Z,29.90
2019-02-04T00:34:25.313Z,26.17
2019-02-04T00:36:55.602Z,78.40
2019-02-04T00:39:25.957Z,38.20
2019-02-04T00:41:56.250Z,43.60
2019-02-04T00:44:26.507Z,51.60
2019-02-04T00:46:56.795Z,40.90
2019-02-04T00:49:27.089Z,32.03
2019-02-04T00:51:57.725Z,40.03
2019-02-04T00:54:27.976Z,69.40
2019-02-04T00:56:58.410Z,45.00
2019-02-04T00:59:28.701Z,74.93
2019-02-04T01:01:58.965Z,52.33
2019-02-04T01:04:29.234Z,37.90
2019-02-04T01:06:59.615Z,69.90
2019-02-04T01:09:29.839Z,42.80
2019-02-04T01:12:00.103Z,31.10
2019-02-04T01:14:30.357Z,38.03
2019-02-04T01:17:03.549Z,31.40
2019-02-04T01:19:32.454Z,29.97
2019-02-04T01:22:02.695Z,24.63
2019-02-04T01:24:32.990Z,29.20
2019-02-04T01:27:03.224Z,23.90
2019-02-04T01:29:33.493Z,29.70
2019-02-04T01:32:04.235Z,24.43
2019-02-04T01:34:34.481Z,24.07
2019-02-04T01:37:04.722Z,22.30
2019-02-04T01:39:34.990Z,22.00
2019-02-04T01:42:05.245Z,27.83
2019-02-04T01:44:36.119Z,20.20
2019-02-04T01:47:14.492Z,26.73
2019-02-04T01:49:38.229Z,23.10
2019-02-04T01:52:08.486Z,28.60
2019-02-04T01:54:38.754Z,23.43
2019-02-04T01:57:09.042Z,32.60
2019-02-04T01:59:39.273Z,34.00
2019-02-04T02:02:09.521Z,28.53
2019-02-04T02:04:39.821Z,32.37
2019-02-04T02:07:10.070Z,40.17
2019-02-04T02:09:40.432Z,55.47
2019-02-04T02:12:10.897Z,33.57
2019-02-04T02:14:41.189Z,28.70
2019-02-04T02:17:11.410Z,26.33
2019-02-04T02:19:41.669Z,33.53
2019-02-04T02:22:11.912Z,35.30
2019-02-04T02:24:42.485Z,40.50
2019-02-04T02:27:12.718Z,24.47
2019-02-04T02:29:42.970Z,25.77
2019-02-04T02:32:13.179Z,30.97
2019-02-04T02:34:43.745Z,59.73
2019-02-04T02:37:14.367Z,26.30
2019-02-04T02:39:44.584Z,23.53
2019-02-04T02:42:14.826Z,39.03
2019-02-04T02:44:45.064Z,24.27
2019-02-04T02:47:15.414Z,23.63
2019-02-04T02:49:45.625Z,21.63
2019-02-04T02:52:16.300Z,23.13
2019-02-04T02:54:46.578Z,20.63
2019-02-04T02:57:16.812Z,32.10
2019-02-04T02:59:47.065Z,21.37
2019-02-04T03:02:17.290Z,24.93
2019-02-04T03:04:47.809Z,22.10
2019-02-04T03:07:18.071Z,23.03
2019-02-04T03:09:48.310Z,21.17
2019-02-04T03:12:18.599Z,26.70
2019-02-04T03:14:48.854Z,18.87
2019-02-04T03:17:19.056Z,19.67
2019-02-04T03:19:49.318Z,17.03
2019-02-04T03:22:19.689Z,26.80
2019-02-04T03:24:49.909Z,22.90
2019-02-04T03:27:20.141Z,20.93
2019-02-04T03:29:50.383Z,14.97
2019-02-04T03:32:20.812Z,18.90
2019-02-04T03:34:51.061Z,15.20
2019-02-04T03:37:21.318Z,16.33
2019-02-04T03:39:51.590Z,17.40
2019-02-04T03:42:21.857Z,16.20
2019-02-04T03:44:52.673Z,14.83
2019-02-04T03:47:22.927Z,13.70
2019-02-04T03:49:53.161Z,13.57
2019-02-04T03:52:23.402Z,12.70
2019-02-04T03:54:53.675Z,15.57
2019-02-04T03:57:25.518Z,14.40
2019-02-04T03:59:57.108Z,14.73
2019-02-04T04:02:27.497Z,13.53
2019-02-04T04:04:57.846Z,12.27
2019-02-04T04:07:28.097Z,12.87
2019-02-04T04:09:58.377Z,12.63
2019-02-04T04:12:28.647Z,13.23
2019-02-04T04:14:58.906Z,13.57
2019-02-04T04:17:29.169Z,12.57
2019-02-04T04:19:59.441Z,11.70
2019-02-04T04:22:29.706Z,10.77
2019-02-04T04:24:59.934Z,9.67
2019-02-04T04:27:30.161Z,9.00
2019-02-04T04:30:00.447Z,8.70
2019-02-04T04:32:30.674Z,8.47
2019-02-04T04:35:00.961Z,7.07
2019-02-04T04:37:31.382Z,6.43
2019-02-04T04:40:01.598Z,5.77
2019-02-04T04:42:31.843Z,6.03
2019-02-04T04:45:02.242Z,4.40
2019-02-04T04:47:32.456Z,5.63
2019-02-04T04:50:02.698Z,5.03
2019-02-04T04:52:32.975Z,4.10
2019-02-04T04:55:03.232Z,4.70
2019-02-04T04:57:33.502Z,6.30
2019-02-04T05:00:03.741Z,6.00
2019-02-04T05:02:33.992Z,5.30
2019-02-04T05:05:04.708Z,4.70
2019-02-04T05:07:34.960Z,4.33
2019-02-04T05:10:06.030Z,4.53
2019-02-04T05:12:36.287Z,4.73
2019-02-04T05:15:07.570Z,4.73
2019-02-04T05:17:38.295Z,2.90
2019-02-04T05:20:09.152Z,4.60
2019-02-04T05:22:39.453Z,4.10
2019-02-04T05:25:09.701Z,4.77
2019-02-04T05:27:39.918Z,3.33
2019-02-04T05:30:12.826Z,3.70
2019-02-04T05:32:43.089Z,3.40
2019-02-04T05:35:13.354Z,3.50
2019-02-04T05:37:43.613Z,4.03
2019-02-04T05:40:15.036Z,3.43
2019-02-04T05:42:45.450Z,3.70
2019-02-04T05:45:16.889Z,4.27
2019-02-04T05:47:47.143Z,3.93
2019-02-04T05:50:18.358Z,4.27
2019-02-04T05:52:48.831Z,3.37
2019-02-04T05:55:20.380Z,4.30
2019-02-04T05:57:50.626Z,3.60
2019-02-04T06:00:33.553Z,4.70
2019-02-04T06:03:03.781Z,3.60
2019-02-04T06:05:34.018Z,4.13
2019-02-04T06:08:04.469Z,3.20
2019-02-04T06:10:34.701Z,3.70
2019-02-04T06:13:04.978Z,4.47
2019-02-04T06:15:35.211Z,2.83
2019-02-04T06:18:05.463Z,3.90
2019-02-04T06:20:36.166Z,2.70
2019-02-04T06:23:06.398Z,3.37
2019-02-04T06:25:36.696Z,3.13
2019-02-04T06:28:06.938Z,4.00
2019-02-04T06:30:37.246Z,3.97
2019-02-04T06:33:34.901Z,3.90
2019-02-04T06:35:56.103Z,2.07
2019-02-04T06:38:26.354Z,3.17
2019-02-04T06:40:56.609Z,2.90
2019-02-04T06:43:26.863Z,2.47
2019-02-04T06:45:57.123Z,1.73
2019-02-04T06:48:27.398Z,4.53
2019-02-04T06:50:57.642Z,10.27
2019-02-04T06:53:27.930Z,10.30
2019-02-04T06:55:58.182Z,8.13
2019-02-04T06:58:28.782Z,11.03
2019-02-04T07:00:59.014Z,11.23
2019-02-04T07:03:29.374Z,16.30
2019-02-04T07:05:59.603Z,19.47
2019-02-04T07:08:29.875Z,26.90
2019-02-04T07:11:00.184Z,14.47
2019-02-04T07:13:30.470Z,11.37
2019-02-04T07:16:00.722Z,9.80
2019-02-04T07:18:31.001Z,11.60
2019-02-04T07:21:20.979Z,10.60
2019-02-04T07:23:50.631Z,7.53
2019-02-04T07:26:42.192Z,5.30
2019-02-04T07:29:12.465Z,7.90
2019-02-04T07:32:07.220Z,5.20
2019-02-04T07:34:37.501Z,9.17
2019-02-04T07:37:30.474Z,7.80
2019-02-04T07:40:00.750Z,4.37
2019-02-04T07:42:52.401Z,7.43
2019-02-04T07:45:22.617Z,4.80
2019-02-04T07:47:53.051Z,5.87
2019-02-04T07:50:24.990Z,5.10
2019-02-04T07:52:55.222Z,5.23
2019-02-04T07:55:25.482Z,4.00
2019-02-04T07:57:57.311Z,3.10
2019-02-04T08:00:30.246Z,3.50
2019-02-04T08:03:00.592Z,3.77
2019-02-04T08:05:30.907Z,1.60
2019-02-04T08:08:01.154Z,3.23
2019-02-04T08:10:31.411Z,4.10
2019-02-04T08:13:02.253Z,3.57
2019-02-04T08:15:37.302Z,3.30
2019-02-04T08:18:08.448Z,3.60
2019-02-04T08:20:38.695Z,4.20
2019-02-04T08:23:08.949Z,6.50
2019-02-04T08:25:39.597Z,6.53
2019-02-04T08:28:09.823Z,8.87
2019-02-04T08:30:40.078Z,5.80
2019-02-04T08:33:10.301Z,4.47
2019-02-04T08:35:40.594Z,7.73
2019-02-04T08:38:10.838Z,8.00
2019-02-04T08:40:41.076Z,6.50
2019-02-04T08:43:11.374Z,8.53
2019-02-04T08:45:41.662Z,4.90
2019-02-04T08:48:11.929Z,8.37
2019-02-04T08:50:42.198Z,10.50
2019-02-04T08:53:12.462Z,11.77
2019-02-04T08:55:42.794Z,7.60
2019-02-04T08:58:14.062Z,8.80
2019-02-04T09:00:44.309Z,8.43
2019-02-04T09:03:14.569Z,8.00
2019-02-04T09:05:47.071Z,9.27
2019-02-04T09:08:17.704Z,10.17
2019-02-04T09:10:47.990Z,9.53
2019-02-04T09:13:18.223Z,6.93
2019-02-04T09:15:48.522Z,7.03
2019-02-04T09:18:18.749Z,6.67
2019-02-04T09:20:49.089Z,4.27
2019-02-04T09:23:19.330Z,3.60
2019-02-04T09:25:49.612Z,2.77
2019-02-04T09:28:19.878Z,4.77
2019-02-04T09:30:50.107Z,6.27
2019-02-04T09:33:20.391Z,7.93
2019-02-04T09:35:52.245Z,15.93
2019-02-04T09:38:22.505Z,11.10
2019-02-04T09:41:02.214Z,7.03
2019-02-04T09:43:32.506Z,7.70
2019-02-04T09:46:02.757Z,7.83
2019-02-04T09:48:33.279Z,14.67
2019-02-04T09:51:03.897Z,20.17
2019-02-04T09:53:34.157Z,16.87
2019-02-04T09:56:04.427Z,12.30
2019-02-04T09:58:34.638Z,11.40
2019-02-04T10:01:04.999Z,10.30
2019-02-04T10:03:35.245Z,6.00
2019-02-04T10:06:05.462Z,4.83
2019-02-04T10:08:35.727Z,5.57
2019-02-04T10:11:06.003Z,6.47
2019-02-04T10:13:36.270Z,7.83
2019-02-04T10:16:06.851Z,4.97
2019-02-04T10:18:37.983Z,4.00
2019-02-04T10:21:08.312Z,3.00
2019-02-04T10:23:38.536Z,3.03
2019-02-04T10:26:08.820Z,4.13
2019-02-04T10:28:39.374Z,9.27
2019-02-04T10:31:09.629Z,13.50
2019-02-04T10:33:39.977Z,11.67
2019-02-04T10:36:10.253Z,12.17
2019-02-04T10:38:40.488Z,10.27
2019-02-04T10:41:10.740Z,8.90
2019-02-04T10:43:41.099Z,6.77
2019-02-04T10:46:11.378Z,6.47
2019-02-04T10:48:41.795Z,4.40
2019-02-04T10:51:12.339Z,5.50
2019-02-04T10:53:42.577Z,6.17
2019-02-04T10:56:16.337Z,6.47
2019-02-04T10:58:47.272Z,6.50
2019-02-04T11:01:17.810Z,6.90
2019-02-04T11:03:48.143Z,6.77
2019-02-04T11:06:18.379Z,7.27
2019-02-04T11:08:49.035Z,8.03
2019-02-04T11:11:19.238Z,9.30
2019-02-04T11:13:49.526Z,7.90
2019-02-04T11:16:19.747Z,8.57
2019-02-04T11:18:50.051Z,5.20
2019-02-04T11:21:20.330Z,5.40
2019-02-04T11:23:50.860Z,5.13
2019-02-04T11:26:21.123Z,7.80
2019-02-04T11:28:51.357Z,7.77
2019-02-04T11:31:21.660Z,6.60
2019-02-04T11:33:53.249Z,7.23
2019-02-04T11:36:23.816Z,4.27
2019-02-04T11:38:54.057Z,3.67
2019-02-04T11:41:24.300Z,5.90
2019-02-04T11:43:54.553Z,7.73
2019-02-04T11:46:24.839Z,6.27
2019-02-04T11:48:55.620Z,6.77
2019-02-04T11:51:25.907Z,9.33
2019-02-04T11:53:56.114Z,5.60
2019-02-04T11:56:26.419Z,10.57
2019-02-04T11:58:56.621Z,11.23
2019-02-04T12:01:26.873Z,10.20
2019-02-04T12:03:57.098Z,7.23
2019-02-04T12:06:27.330Z,7.83
2019-02-04T12:08:57.624Z,10.53
2019-02-04T12:11:27.848Z,7.70
2019-02-04T12:13:58.054Z,6.50
2019-02-04T12:16:28.728Z,4.37
2019-02-04T12:18:59.001Z,4.23
2019-02-04T12:21:29.227Z,3.33
2019-02-04T12:23:59.491Z,3.33
2019-02-04T12:26:29.715Z,3.07
2019-02-04T12:28:59.941Z,2.93
2019-02-04T12:31:30.181Z,2.20
2019-02-04T12:34:00.420Z,3.20
2019-02-04T12:36:30.662Z,3.23
2019-02-04T12:39:00.982Z,3.33
2019-02-04T12:41:31.205Z,2.97
2019-02-04T12:44:01.722Z,2.73
2019-02-04T12:46:31.953Z,3.03
2019-02-04T12:49:02.242Z,3.20
2019-02-04T12:51:33.947Z,3.17
2019-02-04T12:54:04.285Z,2.87
2019-02-04T12:56:34.519Z,3.20
2019-02-04T12:59:04.744Z,3.23
2019-02-04T13:01:34.977Z,3.43
2019-02-04T13:04:05.211Z,3.07
2019-02-04T13:06:35.429Z,2.97
2019-02-04T13:09:09.038Z,3.20
2019-02-04T13:11:39.298Z,3.40
2019-02-04T13:14:09.643Z,3.10
2019-02-04T13:16:39.905Z,3.20
2019-02-04T13:19:10.175Z,2.57
2019-02-04T13:21:45.647Z,3.37
2019-02-04T13:24:12.283Z,4.87
2019-02-04T13:26:42.494Z,5.57
2019-02-04T13:29:12.740Z,8.10
2019-02-04T13:31:43.024Z,5.53
2019-02-04T13:34:13.265Z,4.43
2019-02-04T13:36:43.588Z,6.00
2019-02-04T13:39:13.831Z,6.97
2019-02-04T13:41:44.074Z,9.10
2019-02-04T13:44:14.321Z,9.37
2019-02-04T13:46:44.606Z,10.03
2019-02-04T13:49:14.850Z,6.93
2019-02-04T13:51:56.803Z,3.40
2019-02-04T13:54:17.054Z,4.10
2019-02-04T13:56:47.396Z,4.17
2019-02-04T13:59:17.671Z,3.70
2019-02-04T14:01:47.919Z,4.10
2019-02-04T14:04:18.789Z,3.30
2019-02-04T14:06:49.032Z,3.40
2019-02-04T14:09:20.474Z,3.40
2019-02-04T14:11:50.867Z,3.97
2019-02-04T14:14:21.038Z,3.43
2019-02-04T14:16:51.563Z,5.20
2019-02-04T14:19:21.846Z,4.90
2019-02-04T14:21:52.107Z,4.47
2019-02-04T14:24:22.406Z,4.40
2019-02-04T14:26:52.682Z,4.90
2019-02-04T14:29:23.302Z,5.23
2019-02-04T14:31:53.542Z,6.17
2019-02-04T14:34:23.801Z,5.83
2019-02-04T14:36:54.059Z,5.20
2019-02-04T14:39:24.291Z,5.60
2019-02-04T14:41:54.564Z,7.43
2019-02-04T14:45:08.953Z,9.70
2019-02-04T14:48:02.756Z,11.77
2019-02-04T14:50:49.754Z,6.57
2019-02-04T14:53:59.890Z,5.13
2019-02-04T14:57:38.357Z,4.27
2019-02-04T15:00:30.742Z,5.80
2019-02-04T15:03:39.148Z,5.63
2019-02-04T15:06:47.774Z,5.17
2019-02-04T15:09:54.154Z,4.10
2019-02-04T15:13:04.430Z,3.93
2019-02-04T15:16:06.852Z,6.20
2019-02-04T15:19:22.667Z,8.53
2019-02-04T15:22:33.519Z,9.47
2019-02-04T15:25:51.275Z,9.93
2019-02-04T15:28:55.279Z,6.83
2019-02-04T15:31:58.597Z,5.63
2019-02-04T15:35:11.906Z,4.20
2019-02-04T15:38:13.436Z,4.67
2019-02-04T15:41:17.826Z,4.87
2019-02-04T15:44:36.858Z,5.20
2019-02-04T15:47:43.195Z,5.40
2019-02-04T15:50:28.577Z,6.27
2019-02-04T15:52:59.311Z,6.37
2019-02-04T15:55:29.577Z,7.93
2019-02-04T15:57:59.854Z,8.50
2019-02-04T16:00:30.096Z,7.13
2019-02-04T16:03:00.370Z,14.67
2019-02-04T16:05:31.062Z,12.03
2019-02-04T16:08:01.279Z,8.63
2019-02-04T16:10:31.610Z,5.93
2019-02-04T16:13:01.936Z,4.60
2019-02-04T16:15:32.361Z,4.77
2019-02-04T16:18:02.882Z,5.10
2019-02-04T16:20:33.130Z,3.50
2019-02-04T16:23:03.420Z,6.20
2019-02-04T16:25:33.674Z,5.53
2019-02-04T16:28:03.922Z,8.00
2019-02-04T16:30:34.282Z,7.77
2019-02-04T16:33:04.655Z,8.00
2019-02-04T16:35:34.882Z,6.77
2019-02-04T16:38:05.644Z,8.10
2019-02-04T16:40:35.894Z,7.43
2019-02-04T16:43:06.189Z,6.67
2019-02-04T16:45:36.793Z,6.10
2019-02-04T16:48:07.090Z,4.83
2019-02-04T16:50:37.430Z,4.93
2019-02-04T16:53:10.747Z,5.00
2019-02-04T16:55:40.843Z,4.90
2019-02-04T16:58:11.617Z,5.00
2019-02-04T17:00:41.864Z,4.50
2019-02-04T17:03:13.662Z,5.37
2019-02-04T17:05:43.970Z,4.97
2019-02-04T17:08:14.187Z,5.10
2019-02-04T17:10:44.450Z,4.93
2019-02-04T17:13:15.098Z,5.07
2019-02-04T17:15:45.391Z,4.70
2019-02-04T17:18:15.680Z,4.27
2019-02-04T17:20:45.942Z,4.30
2019-02-04T17:23:22.329Z,4.40
2019-02-04T17:25:48.053Z,4.73
2019-02-04T17:28:18.304Z,4.30
2019-02-04T17:30:48.579Z,4.57
2019-02-04T17:33:18.826Z,4.57
2019-02-04T17:35:49.069Z,5.00
2019-02-04T17:38:19.309Z,4.87
2019-02-04T17:40:49.586Z,5.10
2019-02-04T17:43:19.824Z,5.20
2019-02-04T17:45:50.074Z,5.00
2019-02-04T17:48:20.372Z,5.13
2019-02-04T17:50:50.590Z,5.90
2019-02-04T17:53:21.073Z,5.60
2019-02-04T17:55:51.311Z,5.33
2019-02-04T17:58:21.555Z,5.40
2019-02-04T18:00:53.829Z,5.00
2019-02-04T18:03:24.103Z,5.23
2019-02-04T18:05:54.650Z,5.13
2019-02-04T18:08:24.865Z,5.00
2019-02-04T18:10:55.106Z,5.23
2019-02-04T18:13:25.366Z,5.60
2019-02-04T18:15:55.598Z,6.23
2019-02-04T18:18:25.825Z,5.57
2019-02-04T18:20:56.074Z,5.80
2019-02-04T18:23:26.355Z,6.50
2019-02-04T18:25:56.562Z,6.13
2019-02-04T18:28:26.778Z,6.27
2019-02-04T18:30:57.113Z,4.90
2019-02-04T18:33:27.333Z,5.83
2019-02-04T18:35:57.551Z,6.00
2019-02-04T18:38:28.006Z,6.10
2019-02-04T18:40:58.610Z,5.27
2019-02-04T18:43:28.886Z,5.63
2019-02-04T18:45:59.211Z,6.17
2019-02-04T18:48:29.690Z,5.57
2019-02-04T18:50:59.929Z,5.67
2019-02-04T18:53:30.172Z,11.73
2019-02-04T18:56:00.970Z,7.17
2019-02-04T18:58:33.122Z,4.83
2019-02-04T19:01:03.458Z,4.47
2019-02-04T19:03:33.701Z,4.60
2019-02-04T19:06:03.988Z,7.17
2019-02-04T19:08:34.214Z,8.70
2019-02-04T19:11:04.657Z,6.20
2019-02-04T19:13:36.436Z,4.93
2019-02-04T19:16:06.874Z,5.33
2019-02-04T19:18:37.110Z,8.07
2019-02-04T19:21:07.425Z,6.83
2019-02-04T19:23:37.677Z,5.20
2019-02-04T19:26:07.973Z,6.23
2019-02-04T19:28:38.232Z,7.63
2019-02-04T19:31:15.517Z,8.67
2019-02-04T19:33:45.738Z,6.33
2019-02-04T19:36:18.480Z,5.60
2019-02-04T19:38:47.855Z,6.07
2019-02-04T19:41:18.190Z,8.23
2019-02-04T19:43:48.455Z,9.27
2019-02-04T19:46:18.696Z,6.43
2019-02-04T19:48:49.191Z,22.63
2019-02-04T19:51:19.637Z,6.13
2019-02-04T19:53:50.661Z,4.87
2019-02-04T19:56:20.890Z,5.63
2019-02-04T19:58:51.236Z,6.53
2019-02-04T20:01:21.481Z,5.60
2019-02-04T20:03:51.717Z,10.00
2019-02-04T20:06:21.986Z,5.90
2019-02-04T20:08:52.674Z,6.77
2019-02-04T20:11:22.915Z,5.03
2019-02-04T20:13:53.151Z,6.33
2019-02-04T20:16:23.443Z,5.57
2019-02-04T20:18:54.218Z,6.57
2019-02-04T20:21:24.543Z,6.03
2019-02-04T20:23:54.781Z,6.50
2019-02-04T20:26:25.059Z,6.40
2019-02-04T20:28:55.325Z,6.27
2019-02-04T20:31:25.598Z,5.73
2019-02-04T20:33:55.793Z,5.37
2019-02-04T20:36:26.139Z,6.13
2019-02-04T20:38:56.395Z,6.20
2019-02-04T20:41:27.054Z,5.77
2019-02-04T20:43:57.278Z,7.47
2019-02-04T20:46:27.535Z,7.07
2019-02-04T20:48:57.766Z,12.93
2019-02-04T20:51:28.057Z,10.13
2019-02-04T20:53:58.287Z,10.37
2019-02-04T20:56:28.554Z,7.00
2019-02-04T20:58:58.788Z,11.53
2019-02-04T21:01:29.260Z,10.50
2019-02-04T21:03:59.518Z,6.27
2019-02-04T21:06:29.824Z,52.73
2019-02-04T21:09:00.103Z,23.00
2019-02-04T21:11:30.351Z,7.10
2019-02-04T21:14:02.815Z,7.73
2019-02-04T21:16:32.435Z,7.67
2019-02-04T21:19:02.779Z,7.77
2019-02-04T21:21:33.007Z,7.63
2019-02-04T21:24:03.250Z,11.40
2019-02-04T21:27:26.711Z,20.30
2019-02-04T21:30:00.865Z,7.43
2019-02-04T21:32:31.334Z,5.37
2019-02-04T21:35:01.639Z,7.57
2019-02-04T21:37:31.854Z,10.27
2019-02-04T21:40:02.111Z,5.70
2019-02-04T21:42:32.344Z,24.10
2019-02-04T21:45:04.228Z,5.57
2019-02-04T21:47:34.466Z,11.27
2019-02-04T21:50:05.797Z,8.83
2019-02-04T21:52:36.028Z,6.30
2019-02-04T21:55:08.758Z,5.73
2019-02-04T21:57:39.225Z,6.50
2019-02-04T22:00:12.563Z,18.10
2019-02-04T22:02:42.826Z,12.97
2019-02-04T22:05:14.479Z,7.47
2019-02-04T22:07:44.722Z,7.00
2019-02-04T22:10:17.617Z,7.50
2019-02-04T22:12:47.913Z,7.87
2019-02-04T22:15:18.129Z,7.60
2019-02-04T22:17:48.399Z,9.90
2019-02-04T22:20:18.907Z,7.80
2019-02-04T22:22:49.165Z,7.20
2019-02-04T22:25:20.467Z,11.90
2019-02-04T22:27:50.698Z,11.90
2019-02-04T22:30:22.899Z,8.17
2019-02-04T22:32:53.125Z,7.47
2019-02-04T22:35:23.410Z,8.53
2019-02-04T22:37:53.763Z,12.97
2019-02-04T22:40:25.830Z,25.20
2019-02-04T22:42:56.346Z,10.00
2019-02-04T22:45:26.583Z,7.90
2019-02-04T22:47:56.810Z,7.07
2019-02-04T22:50:31.059Z,7.70
2019-02-04T22:53:02.432Z,8.90
2019-02-04T22:55:33.122Z,9.13
2019-02-04T22:58:03.354Z,7.90
2019-02-04T23:01:01.096Z,8.53
2019-02-04T23:03:31.317Z,13.63
2019-02-04T23:06:01.530Z,16.70
2019-02-04T23:08:31.765Z,8.03
2019-02-04T23:11:02.087Z,7.53
2019-02-04T23:13:33.257Z,8.10
2019-02-04T23:16:03.514Z,11.20
2019-02-04T23:18:33.789Z,8.00
2019-02-04T23:21:04.074Z,9.07
2019-02-04T23:23:34.326Z,7.50
2019-02-04T23:26:04.643Z,14.77
2019-02-04T23:28:34.885Z,18.80
2019-02-04T23:31:05.365Z,9.23
2019-02-04T23:33:35.578Z,7.57
2019-02-04T23:36:05.834Z,10.83
2019-02-04T23:38:36.058Z,33.57
2019-02-04T23:41:06.806Z,7.77
2019-02-04T23:43:37.057Z,7.70
2019-02-04T23:46:07.326Z,8.57
2019-02-04T23:48:37.562Z,16.80
2019-02-04T23:51:07.798Z,8.17
2019-02-04T23:53:38.041Z,9.70
2019-02-04T23:56:08.270Z,21.97
2019-02-04T23:58:38.523Z,9.90
